sensor_id;sensor_type;location;lat;lon;timestamp;pressure;altitude;pressure_sealevel;temperature;humidity
8049;BME280;20935;42.660;23.342;2023-04-27T00:01:17;94447.41;;;21.22;46.12
8049;BME280;20935;42.660;23.342;2023-04-27T00:04:03;94446.94;;;21.24;46.28
8049;BME280;20935;42.660;23.342;2023-04-27T00:06:51;94445.44;;;21.23;46.69
8049;BME280;20935;42.660;23.342;2023-04-27T00:09:36;94449.22;;;21.25;46.94
8049;BME280;20935;42.660;23.342;2023-04-27T00:12:21;94455.41;;;21.26;46.61
8049;BME280;20935;42.660;23.342;2023-04-27T00:15:08;94455.41;;;21.26;46.49
8049;BME280;20935;42.660;23.342;2023-04-27T00:17:54;94452.94;;;21.28;46.44
8049;BME280;20935;42.660;23.342;2023-04-27T00:20:40;94462.91;;;21.31;46.66
8049;BME280;20935;42.660;23.342;2023-04-27T00:23:27;94460.19;;;21.31;46.80
8049;BME280;20935;42.660;23.342;2023-04-27T00:26:12;94463.66;;;21.31;46.23
8049;BME280;20935;42.660;23.342;2023-04-27T00:28:57;94456.88;;;21.27;46.23
8049;BME280;20935;42.660;23.342;2023-04-27T00:31:43;94452.13;;;21.22;46.28
8049;BME280;20935;42.660;23.342;2023-04-27T00:34:28;94451.38;;;21.21;45.67
8049;BME280;20935;42.660;23.342;2023-04-27T00:37:14;94447.25;;;21.26;46.20
8049;BME280;20935;42.660;23.342;2023-04-27T00:40:03;94453.72;;;21.28;46.41
8049;BME280;20935;42.660;23.342;2023-04-27T00:42:48;94456.69;;;21.30;46.20
8049;BME280;20935;42.660;23.342;2023-04-27T00:45:37;94464.41;;;21.32;45.90
8049;BME280;20935;42.660;23.342;2023-04-27T00:48:25;94467.16;;;21.32;46.04
8049;BME280;20935;42.660;23.342;2023-04-27T00:51:11;94461.44;;;21.30;45.46
8049;BME280;20935;42.660;23.342;2023-04-27T00:53:56;94463.22;;;21.33;45.38
8049;BME280;20935;42.660;23.342;2023-04-27T00:56:44;94459.25;;;21.34;45.22
8049;BME280;20935;42.660;23.342;2023-04-27T00:59:29;94458.03;;;21.35;45.38
8049;BME280;20935;42.660;23.342;2023-04-27T01:02:15;94468.47;;;21.36;45.06
8049;BME280;20935;42.660;23.342;2023-04-27T01:05:00;94473.63;;;21.34;45.12
8049;BME280;20935;42.660;23.342;2023-04-27T01:07:46;94470.91;;;21.34;45.00
8049;BME280;20935;42.660;23.342;2023-04-27T01:10:31;94477.59;;;21.33;45.12
8049;BME280;20935;42.660;23.342;2023-04-27T01:13:18;94474.09;;;21.33;45.23
8049;BME280;20935;42.660;23.342;2023-04-27T01:16:04;94467.16;;;21.32;45.11
8049;BME280;20935;42.660;23.342;2023-04-27T01:18:49;94474.56;;;21.31;44.81
8049;BME280;20935;42.660;23.342;2023-04-27T01:21:35;94478.78;;;21.32;44.79
8049;BME280;20935;42.660;23.342;2023-04-27T01:24:22;94481.53;;;21.32;44.71
8049;BME280;20935;42.660;23.342;2023-04-27T01:27:07;94484.25;;;21.32;44.76
8049;BME280;20935;42.660;23.342;2023-04-27T01:29:53;94481.06;;;21.34;44.66
8049;BME280;20935;42.660;23.342;2023-04-27T01:32:38;94482.28;;;21.33;44.50
8049;BME280;20935;42.660;23.342;2023-04-27T01:35:24;94489.97;;;21.34;44.75
8049;BME280;20935;42.660;23.342;2023-04-27T01:38:09;94487.72;;;21.33;44.45
8049;BME280;20935;42.660;23.342;2023-04-27T01:40:56;94495.16;;;21.32;44.57
8049;BME280;20935;42.660;23.342;2023-04-27T01:43:45;94490.44;;;21.33;44.38
8049;BME280;20935;42.660;23.342;2023-04-27T01:46:30;94492.88;;;21.31;44.51
8049;BME280;20935;42.660;23.342;2023-04-27T01:49:16;94492.59;;;21.29;44.39
8049;BME280;20935;42.660;23.342;2023-04-27T01:52:01;94496.28;;;21.26;44.52
8049;BME280;20935;42.660;23.342;2023-04-27T01:54:46;94492.78;;;21.25;44.42
8049;BME280;20935;42.660;23.342;2023-04-27T01:57:33;94490.53;;;21.24;44.08
8049;BME280;20935;42.660;23.342;2023-04-27T02:00:19;94493.44;;;21.20;44.39
8049;BME280;20935;42.660;23.342;2023-04-27T02:03:04;94490.25;;;21.22;44.18
8049;BME280;20935;42.660;23.342;2023-04-27T02:05:50;94494.47;;;21.23;44.18
8049;BME280;20935;42.660;23.342;2023-04-27T02:08:35;94492.69;;;21.20;44.19
8049;BME280;20935;42.660;23.342;2023-04-27T02:11:20;94496.34;;;21.17;44.06
8049;BME280;20935;42.660;23.342;2023-04-27T02:14:07;94507.69;;;21.15;44.34
8049;BME280;20935;42.660;23.342;2023-04-27T02:16:53;94500.75;;;21.14;44.18
8049;BME280;20935;42.660;23.342;2023-04-27T02:19:38;94505.91;;;21.12;43.80
8049;BME280;20935;42.660;23.342;2023-04-27T02:22:24;94505.31;;;21.08;43.47
8049;BME280;20935;42.660;23.342;2023-04-27T02:25:09;94504.09;;;21.09;44.11
8049;BME280;20935;42.660;23.342;2023-04-27T02:27:55;94505.16;;;21.12;44.03
8049;BME280;20935;42.660;23.342;2023-04-27T02:30:42;94506.19;;;21.14;43.59
8049;BME280;20935;42.660;23.342;2023-04-27T02:33:27;94507.69;;;21.15;43.78
8049;BME280;20935;42.660;23.342;2023-04-27T02:36:13;94501.03;;;21.16;44.08
8049;BME280;20935;42.660;23.342;2023-04-27T02:38:58;94503.00;;;21.16;43.82
8049;BME280;20935;42.660;23.342;2023-04-27T02:41:44;94499.84;;;21.17;43.86
8049;BME280;20935;42.660;23.342;2023-04-27T02:44:29;94503.31;;;21.18;43.47
8049;BME280;20935;42.660;23.342;2023-04-27T02:47:16;94504.72;;;21.13;43.64
8049;BME280;20935;42.660;23.342;2023-04-27T02:50:02;94506.69;;;21.13;43.47
8049;BME280;20935;42.660;23.342;2023-04-27T02:52:48;94505.59;;;21.10;43.47
8049;BME280;20935;42.660;23.342;2023-04-27T02:55:33;94508.81;;;21.08;43.23
8049;BME280;20935;42.660;23.342;2023-04-27T02:58:19;94504.88;;;21.09;43.57
8049;BME280;20935;42.660;23.342;2023-04-27T03:01:04;94510.00;;;21.07;43.25
8049;BME280;20935;42.660;23.342;2023-04-27T03:03:51;94510.19;;;21.04;43.30
8049;BME280;20935;42.660;23.342;2023-04-27T03:06:36;94516.41;;;21.04;43.07
8049;BME280;20935;42.660;23.342;2023-04-27T03:09:22;94519.41;;;21.06;42.92
8049;BME280;20935;42.660;23.342;2023-04-27T03:12:08;94517.91;;;21.05;43.08
8049;BME280;20935;42.660;23.342;2023-04-27T03:14:53;94519.00;;;20.99;43.11
8049;BME280;20935;42.660;23.342;2023-04-27T03:17:39;94513.75;;;20.95;43.13
8049;BME280;20935;42.660;23.342;2023-04-27T03:20:26;94525.22;;;20.99;43.22
8049;BME280;20935;42.660;23.342;2023-04-27T03:23:11;94525.97;;;21.00;42.94
8049;BME280;20935;42.660;23.342;2023-04-27T03:25:56;94545.25;;;20.87;43.09
8049;BME280;20935;42.660;23.342;2023-04-27T03:28:42;94527.72;;;20.88;42.81
8049;BME280;20935;42.660;23.342;2023-04-27T03:31:27;94534.94;;;20.91;42.83
8049;BME280;20935;42.660;23.342;2023-04-27T03:34:13;94540.75;;;20.84;42.87
8049;BME280;20935;42.660;23.342;2023-04-27T03:37:00;94540.44;;;20.82;42.69
8049;BME280;20935;42.660;23.342;2023-04-27T03:39:46;94540.75;;;20.84;42.92
8049;BME280;20935;42.660;23.342;2023-04-27T03:42:31;94541.78;;;20.87;42.35
8049;BME280;20935;42.660;23.342;2023-04-27T03:45:17;94548.63;;;20.82;41.60
8049;BME280;20935;42.660;23.342;2023-04-27T03:48:05;94548.69;;;20.73;42.46
8049;BME280;20935;42.660;23.342;2023-04-27T03:50:50;94554.72;;;20.77;42.68
8049;BME280;20935;42.660;23.342;2023-04-27T03:53:37;94556.38;;;20.75;42.34
8049;BME280;20935;42.660;23.342;2023-04-27T03:56:22;94544.28;;;20.76;42.25
8049;BME280;20935;42.660;23.342;2023-04-27T03:59:08;94552.00;;;20.77;42.40
8049;BME280;20935;42.660;23.342;2023-04-27T04:01:53;94568.59;;;20.79;42.16
8049;BME280;20935;42.660;23.342;2023-04-27T04:04:40;94572.25;;;20.76;41.59
8049;BME280;20935;42.660;23.342;2023-04-27T04:07:25;94576.09;;;20.70;41.93
8049;BME280;20935;42.660;23.342;2023-04-27T04:10:12;94578.34;;;20.71;42.07
8049;BME280;20935;42.660;23.342;2023-04-27T04:12:57;94577.88;;;20.73;41.53
8049;BME280;20935;42.660;23.342;2023-04-27T04:15:43;94575.44;;;20.75;41.42
8049;BME280;20935;42.660;23.342;2023-04-27T04:18:29;94580.88;;;20.75;41.55
8049;BME280;20935;42.660;23.342;2023-04-27T04:21:14;94583.44;;;20.78;41.48
8049;BME280;20935;42.660;23.342;2023-04-27T04:24:00;94584.50;;;20.81;41.63
8049;BME280;20935;42.660;23.342;2023-04-27T04:26:46;94584.75;;;20.83;41.73
8049;BME280;20935;42.660;23.342;2023-04-27T04:29:32;94595.22;;;20.84;41.90
8049;BME280;20935;42.660;23.342;2023-04-27T04:32:18;94592.03;;;20.86;41.66
8049;BME280;20935;42.660;23.342;2023-04-27T04:35:04;94599.72;;;20.87;42.00
8049;BME280;20935;42.660;23.342;2023-04-27T04:37:49;94601.22;;;20.88;41.95
8049;BME280;20935;42.660;23.342;2023-04-27T04:40:35;94599.53;;;20.91;41.70
8049;BME280;20935;42.660;23.342;2023-04-27T04:43:23;94605.47;;;20.89;41.73
8049;BME280;20935;42.660;23.342;2023-04-27T04:46:08;94604.72;;;20.89;41.52
8049;BME280;20935;42.660;23.342;2023-04-27T04:48:54;94614.25;;;20.84;41.03
8049;BME280;20935;42.660;23.342;2023-04-27T04:51:41;94612.56;;;20.87;41.49
8049;BME280;20935;42.660;23.342;2023-04-27T04:54:26;94624.56;;;20.80;40.60
8049;BME280;20935;42.660;23.342;2023-04-27T04:57:11;94627.63;;;20.73;40.82
8049;BME280;20935;42.660;23.342;2023-04-27T04:59:58;94629.72;;;20.78;40.97
8049;BME280;20935;42.660;23.342;2023-04-27T05:02:45;94628.06;;;20.81;40.90
8049;BME280;20935;42.660;23.342;2023-04-27T05:05:30;94627.88;;;20.84;40.97
8049;BME280;20935;42.660;23.342;2023-04-27T05:08:16;94628.16;;;20.86;40.86
8049;BME280;20935;42.660;23.342;2023-04-27T05:11:01;94648.44;;;20.85;40.56
8049;BME280;20935;42.660;23.342;2023-04-27T05:13:47;94638.78;;;20.84;40.78
8049;BME280;20935;42.660;23.342;2023-04-27T05:16:33;94650.41;;;20.85;40.81
8049;BME280;20935;42.660;23.342;2023-04-27T05:19:19;94632.31;;;20.40;39.87
8049;BME280;20935;42.660;23.342;2023-04-27T05:22:04;94658.53;;;20.61;40.89
8049;BME280;20935;42.660;23.342;2023-04-27T05:24:50;94654.81;;;19.53;37.57
8049;BME280;20935;42.660;23.342;2023-04-27T05:27:35;94654.59;;;19.29;40.52
8049;BME280;20935;42.660;23.342;2023-04-27T05:30:21;94657.34;;;19.84;39.74
8049;BME280;20935;42.660;23.342;2023-04-27T05:33:07;94657.16;;;20.05;39.71
8049;BME280;20935;42.660;23.342;2023-04-27T05:35:53;94652.31;;;20.09;38.24
8049;BME280;20935;42.660;23.342;2023-04-27T05:38:38;94654.78;;;19.98;38.25
8049;BME280;20935;42.660;23.342;2023-04-27T05:41:24;94666.25;;;19.75;36.98
8049;BME280;20935;42.660;23.342;2023-04-27T05:44:10;94661.25;;;20.10;38.67
8049;BME280;20935;42.660;23.342;2023-04-27T05:46:55;94654.09;;;20.31;39.17
8049;BME280;20935;42.660;23.342;2023-04-27T05:49:42;94658.13;;;20.53;39.24
8049;BME280;20935;42.660;23.342;2023-04-27T05:52:28;94661.19;;;20.79;41.80
8049;BME280;20935;42.660;23.342;2023-04-27T05:55:13;94661.28;;;20.94;42.02
8049;BME280;20935;42.660;23.342;2023-04-27T05:58:00;94663.47;;;21.04;42.63
8049;BME280;20935;42.660;23.342;2023-04-27T06:00:46;94654.53;;;21.13;42.68
8049;BME280;20935;42.660;23.342;2023-04-27T06:03:32;94669.59;;;21.23;43.31
8049;BME280;20935;42.660;23.342;2023-04-27T06:06:19;94652.88;;;21.30;43.74
8049;BME280;20935;42.660;23.342;2023-04-27T06:09:04;94656.75;;;21.38;44.42
8049;BME280;20935;42.660;23.342;2023-04-27T06:11:50;94659.16;;;21.45;44.51
8049;BME280;20935;42.660;23.342;2023-04-27T06:14:36;94660.94;;;21.48;45.07
8049;BME280;20935;42.660;23.342;2023-04-27T06:17:21;94656.81;;;21.53;45.50
8049;BME280;20935;42.660;23.342;2023-04-27T06:20:07;94658.16;;;21.58;45.20
8049;BME280;20935;42.660;23.342;2023-04-27T06:22:56;94659.47;;;21.62;45.83
8049;BME280;20935;42.660;23.342;2023-04-27T06:25:42;94657.31;;;21.66;45.38
8049;BME280;20935;42.660;23.342;2023-04-27T06:28:28;94646.22;;;21.70;45.64
8049;BME280;20935;42.660;23.342;2023-04-27T06:31:14;94647.28;;;21.72;45.88
8049;BME280;20935;42.660;23.342;2023-04-27T06:34:00;94656.28;;;21.78;45.74
8049;BME280;20935;42.660;23.342;2023-04-27T06:36:45;94655.09;;;21.79;46.00
8049;BME280;20935;42.660;23.342;2023-04-27T06:39:32;94649.63;;;21.79;46.33
8049;BME280;20935;42.660;23.342;2023-04-27T06:42:17;94658.09;;;21.81;46.27
8049;BME280;20935;42.660;23.342;2023-04-27T06:45:03;94640.81;;;21.84;46.92
8049;BME280;20935;42.660;23.342;2023-04-27T06:47:50;94646.25;;;21.84;47.09
8049;BME280;20935;42.660;23.342;2023-04-27T06:50:35;94650.50;;;21.85;47.08
8049;BME280;20935;42.660;23.342;2023-04-27T06:53:20;94650.78;;;21.87;47.01
8049;BME280;20935;42.660;23.342;2023-04-27T06:56:10;94643.19;;;21.91;46.94
8049;BME280;20935;42.660;23.342;2023-04-27T06:58:56;94644.69;;;21.92;47.18
8049;BME280;20935;42.660;23.342;2023-04-27T07:01:41;94636.50;;;21.92;47.32
8049;BME280;20935;42.660;23.342;2023-04-27T07:04:26;94647.69;;;21.94;47.16
8049;BME280;20935;42.660;23.342;2023-04-27T07:07:12;94639.06;;;21.96;47.53
8049;BME280;20935;42.660;23.342;2023-04-27T07:09:58;94637.09;;;21.96;47.93
8049;BME280;20935;42.660;23.342;2023-04-27T07:12:45;94636.13;;;21.99;47.15
8049;BME280;20935;42.660;23.342;2023-04-27T07:15:30;94639.91;;;22.02;47.37
8049;BME280;20935;42.660;23.342;2023-04-27T07:18:16;94638.22;;;22.05;47.45
8049;BME280;20935;42.660;23.342;2023-04-27T07:21:01;94640.47;;;22.06;47.24
8049;BME280;20935;42.660;23.342;2023-04-27T07:23:47;94631.81;;;22.08;47.52
8049;BME280;20935;42.660;23.342;2023-04-27T07:26:32;94641.50;;;22.09;47.55
8049;BME280;20935;42.660;23.342;2023-04-27T07:29:19;94631.63;;;22.11;47.86
8049;BME280;20935;42.660;23.342;2023-04-27T07:32:06;94627.69;;;22.12;47.65
8049;BME280;20935;42.660;23.342;2023-04-27T07:34:54;94622.69;;;22.11;48.15
8049;BME280;20935;42.660;23.342;2023-04-27T07:37:39;94633.91;;;22.13;48.09
8049;BME280;20935;42.660;23.342;2023-04-27T07:40:25;94633.41;;;22.14;47.84
8049;BME280;20935;42.660;23.342;2023-04-27T07:43:11;94621.56;;;22.17;47.55
8049;BME280;20935;42.660;23.342;2023-04-27T07:45:57;94619.56;;;22.18;47.24
8049;BME280;20935;42.660;23.342;2023-04-27T07:48:43;94628.06;;;22.20;47.36
8049;BME280;20935;42.660;23.342;2023-04-27T07:51:28;94635.78;;;22.21;47.52
8049;BME280;20935;42.660;23.342;2023-04-27T07:54:14;94633.78;;;22.22;47.92
8049;BME280;20935;42.660;23.342;2023-04-27T07:57:00;94631.81;;;22.22;47.62
8049;BME280;20935;42.660;23.342;2023-04-27T07:59:46;94627.09;;;22.23;47.32
8049;BME280;20935;42.660;23.342;2023-04-27T08:02:33;94621.94;;;22.25;47.56
8049;BME280;20935;42.660;23.342;2023-04-27T08:05:19;94626.72;;;22.30;47.43
8049;BME280;20935;42.660;23.342;2023-04-27T08:08:04;94619.56;;;22.32;47.89
8049;BME280;20935;42.660;23.342;2023-04-27T08:10:50;94631.25;;;22.33;47.83
8049;BME280;20935;42.660;23.342;2023-04-27T08:13:35;94629.75;;;22.32;47.59
8049;BME280;20935;42.660;23.342;2023-04-27T08:16:20;94626.00;;;22.29;48.97
8049;BME280;20935;42.660;23.342;2023-04-27T08:19:07;94622.78;;;22.31;48.68
8049;BME280;20935;42.660;23.342;2023-04-27T08:21:53;94622.78;;;22.31;49.09
8049;BME280;20935;42.660;23.342;2023-04-27T08:24:39;94627.66;;;22.27;48.61
8049;BME280;20935;42.660;23.342;2023-04-27T08:27:24;94622.22;;;22.27;48.53
8049;BME280;20935;42.660;23.342;2023-04-27T08:30:10;94629.94;;;22.28;47.79
8049;BME280;20935;42.660;23.342;2023-04-27T08:32:56;94624.47;;;22.28;47.67
8049;BME280;20935;42.660;23.342;2023-04-27T08:35:42;94630.97;;;22.31;47.52
8049;BME280;20935;42.660;23.342;2023-04-27T08:38:27;94624.28;;;22.32;47.66
8049;BME280;20935;42.660;23.342;2023-04-27T08:41:17;94628.03;;;22.34;47.48
8049;BME280;20935;42.660;23.342;2023-04-27T08:44:06;94631.81;;;22.37;47.18
8049;BME280;20935;42.660;23.342;2023-04-27T08:46:51;94625.88;;;22.38;47.48
8049;BME280;20935;42.660;23.342;2023-04-27T08:49:37;94627.09;;;22.37;47.32
8049;BME280;20935;42.660;23.342;2023-04-27T08:52:26;94637.53;;;22.39;47.43
8049;BME280;20935;42.660;23.342;2023-04-27T08:55:12;94630.38;;;22.41;47.05
8049;BME280;20935;42.660;23.342;2023-04-27T08:57:57;94623.69;;;22.42;47.21
8049;BME280;20935;42.660;23.342;2023-04-27T09:00:44;94632.38;;;22.41;47.21
8049;BME280;20935;42.660;23.342;2023-04-27T09:03:30;94630.88;;;22.40;47.68
8049;BME280;20935;42.660;23.342;2023-04-27T09:06:16;94629.34;;;22.39;47.63
8049;BME280;20935;42.660;23.342;2023-04-27T09:09:03;94627.84;;;22.38;47.27
8049;BME280;20935;42.660;23.342;2023-04-27T09:11:49;94628.59;;;22.38;47.35
8049;BME280;20935;42.660;23.342;2023-04-27T09:14:35;94617.22;;;22.40;47.38
8049;BME280;20935;42.660;23.342;2023-04-27T09:17:24;94619.94;;;22.40;47.45
8049;BME280;20935;42.660;23.342;2023-04-27T09:20:09;94621.25;;;22.44;47.14
8049;BME280;20935;42.660;23.342;2023-04-27T09:22:56;94619.75;;;22.43;47.29
8049;BME280;20935;42.660;23.342;2023-04-27T09:25:43;94620.00;;;22.45;47.15
8049;BME280;20935;42.660;23.342;2023-04-27T09:28:29;94616.34;;;22.48;46.97
8049;BME280;20935;42.660;23.342;2023-04-27T09:31:15;94609.94;;;22.52;47.00
8049;BME280;20935;42.660;23.342;2023-04-27T09:34:02;94606.94;;;22.49;47.27
8049;BME280;20935;42.660;23.342;2023-04-27T09:36:48;94607.69;;;22.50;47.36
8049;BME280;20935;42.660;23.342;2023-04-27T09:39:34;94594.03;;;22.50;47.40
8049;BME280;20935;42.660;23.342;2023-04-27T09:42:22;94597.50;;;22.51;47.26
8049;BME280;20935;42.660;23.342;2023-04-27T09:45:08;94594.03;;;22.50;47.20
8049;BME280;20935;42.660;23.342;2023-04-27T09:47:54;94596.28;;;22.52;47.38
8049;BME280;20935;42.660;23.342;2023-04-27T09:50:43;94594.59;;;22.54;47.16
8049;BME280;20935;42.660;23.342;2023-04-27T09:53:32;94585.47;;;22.57;47.31
8049;BME280;20935;42.660;23.342;2023-04-27T09:56:26;94586.34;;;21.90;40.86
8049;BME280;20935;42.660;23.342;2023-04-27T09:59:35;94584.13;;;20.88;43.18
8049;BME280;20935;42.660;23.342;2023-04-27T10:02:26;94586.78;;;21.44;43.55
8049;BME280;20935;42.660;23.342;2023-04-27T10:05:37;94572.72;;;21.75;43.79
8049;BME280;20935;42.660;23.342;2023-04-27T10:08:28;94578.91;;;21.90;44.42
8049;BME280;20935;42.660;23.342;2023-04-27T10:11:14;94583.84;;;22.01;44.85
8049;BME280;20935;42.660;23.342;2023-04-27T10:14:05;94577.25;;;22.08;44.64
8049;BME280;20935;42.660;23.342;2023-04-27T10:16:53;94581.09;;;22.16;44.76
8049;BME280;20935;42.660;23.342;2023-04-27T10:19:39;94585.63;;;22.19;44.88
8049;BME280;20935;42.660;23.342;2023-04-27T10:22:36;94583.44;;;22.23;45.06
8049;BME280;20935;42.660;23.342;2023-04-27T10:25:25;94584.75;;;22.27;45.06
8049;BME280;20935;42.660;23.342;2023-04-27T10:28:15;94580.06;;;22.28;44.74
8049;BME280;20935;42.660;23.342;2023-04-27T10:31:08;94598.69;;;22.29;44.91
8049;BME280;20935;42.660;23.342;2023-04-27T10:34:06;94587.59;;;22.33;45.06
8049;BME280;20935;42.660;23.342;2023-04-27T10:37:04;94588.88;;;22.37;45.45
8049;BME280;20935;42.660;23.342;2023-04-27T10:39:49;94580.69;;;22.37;45.34
8049;BME280;20935;42.660;23.342;2023-04-27T10:42:36;94574.31;;;22.40;45.50
8049;BME280;20935;42.660;23.342;2023-04-27T10:45:27;94575.31;;;22.43;45.64
8049;BME280;20935;42.660;23.342;2023-04-27T10:48:13;94578.81;;;22.43;45.53
8049;BME280;20935;42.660;23.342;2023-04-27T10:51:00;94572.13;;;22.44;45.42
8049;BME280;20935;42.660;23.342;2023-04-27T10:53:51;94568.91;;;22.46;45.43
8049;BME280;20935;42.660;23.342;2023-04-27T10:56:36;94577.09;;;22.46;45.77
8049;BME280;20935;42.660;23.342;2023-04-27T10:59:22;94573.34;;;22.43;45.51
8049;BME280;20935;42.660;23.342;2023-04-27T11:02:07;94579.06;;;22.45;45.97
8049;BME280;20935;42.660;23.342;2023-04-27T11:04:55;94566.66;;;22.44;45.70
8049;BME280;20935;42.660;23.342;2023-04-27T11:07:42;94563.44;;;22.46;45.81
8049;BME280;20935;42.660;23.342;2023-04-27T11:10:27;94568.91;;;22.46;45.96
8049;BME280;20935;42.660;23.342;2023-04-27T11:13:14;94562.69;;;22.45;45.79
8049;BME280;20935;42.660;23.342;2023-04-27T11:16:00;94564.94;;;22.47;45.95
8049;BME280;20935;42.660;23.342;2023-04-27T11:18:45;94577.38;;;22.48;46.07
8049;BME280;20935;42.660;23.342;2023-04-27T11:21:31;94571.94;;;22.48;46.20
8049;BME280;20935;42.660;23.342;2023-04-27T11:24:17;94581.63;;;22.49;46.27
8049;BME280;20935;42.660;23.342;2023-04-27T11:27:03;94578.91;;;22.49;46.21
8049;BME280;20935;42.660;23.342;2023-04-27T11:29:48;94574.91;;;22.50;46.46
8049;BME280;20935;42.660;23.342;2023-04-27T11:32:34;94580.38;;;22.50;46.37
8049;BME280;20935;42.660;23.342;2023-04-27T11:35:19;94581.88;;;22.51;46.55
8049;BME280;20935;42.660;23.342;2023-04-27T11:38:05;94580.66;;;22.52;46.72
8049;BME280;20935;42.660;23.342;2023-04-27T11:41:02;94593.09;;;22.53;46.78
8049;BME280;20935;42.660;23.342;2023-04-27T11:43:48;94590.38;;;22.53;46.76
8049;BME280;20935;42.660;23.342;2023-04-27T11:46:34;94585.63;;;22.54;46.78
8049;BME280;20935;42.660;23.342;2023-04-27T11:49:20;94580.66;;;22.52;46.77
8049;BME280;20935;42.660;23.342;2023-04-27T11:52:07;94579.44;;;22.53;46.92
8049;BME280;20935;42.660;23.342;2023-04-27T11:54:53;94589.63;;;22.53;46.72
8049;BME280;20935;42.660;23.342;2023-04-27T11:57:41;94590.06;;;22.51;46.77
8049;BME280;20935;42.660;23.342;2023-04-27T12:00:27;94590.06;;;22.51;47.14
8049;BME280;20935;42.660;23.342;2023-04-27T12:03:12;94590.53;;;22.49;47.26
8049;BME280;20935;42.660;23.342;2023-04-27T12:05:58;94589.06;;;22.48;46.81
8049;BME280;20935;42.660;23.342;2023-04-27T12:08:43;94593.47;;;22.46;47.40
8049;BME280;20935;42.660;23.342;2023-04-27T12:11:29;94587.75;;;22.44;47.01
8049;BME280;20935;42.660;23.342;2023-04-27T12:14:15;94595.19;;;22.43;47.48
8049;BME280;20935;42.660;23.342;2023-04-27T12:17:02;94599.41;;;22.44;47.50
8049;BME280;20935;42.660;23.342;2023-04-27T12:19:48;94598.66;;;22.44;47.35
8049;BME280;20935;42.660;23.342;2023-04-27T12:22:33;94599.41;;;22.44;47.41
8049;BME280;20935;42.660;23.342;2023-04-27T12:25:19;94593.97;;;22.44;47.58
8049;BME280;20935;42.660;23.342;2023-04-27T12:28:05;94593.22;;;22.44;47.50
8049;BME280;20935;42.660;23.342;2023-04-27T12:30:52;94598.66;;;22.44;47.55
8049;BME280;20935;42.660;23.342;2023-04-27T12:33:37;94597.44;;;22.45;47.49
8049;BME280;20935;42.660;23.342;2023-04-27T12:36:23;94593.97;;;22.44;47.57
8049;BME280;20935;42.660;23.342;2023-04-27T12:39:14;94601.66;;;22.46;47.56
8049;BME280;20935;42.660;23.342;2023-04-27T12:42:00;94601.66;;;22.46;47.93
8049;BME280;20935;42.660;23.342;2023-04-27T12:44:46;94600.19;;;22.45;47.91
8049;BME280;20935;42.660;23.342;2023-04-27T12:47:33;94597.16;;;22.43;47.62
8049;BME280;20935;42.660;23.342;2023-04-27T12:50:18;94604.13;;;22.44;48.00
8049;BME280;20935;42.660;23.342;2023-04-27T12:53:04;94608.38;;;22.45;47.92
8049;BME280;20935;42.660;23.342;2023-04-27T12:55:49;94604.88;;;22.44;47.92
8049;BME280;20935;42.660;23.342;2023-04-27T12:58:36;94605.34;;;22.43;48.15
8049;BME280;20935;42.660;23.342;2023-04-27T13:01:22;94599.88;;;22.43;47.80
8049;BME280;20935;42.660;23.342;2023-04-27T13:04:16;94606.84;;;22.44;48.26
8049;BME280;20935;42.660;23.342;2023-04-27T13:07:02;94603.06;;;22.41;48.31
8049;BME280;20935;42.660;23.342;2023-04-27T13:09:47;94603.06;;;22.41;48.50
8049;BME280;20935;42.660;23.342;2023-04-27T13:12:33;94599.13;;;22.42;48.09
8049;BME280;20935;42.660;23.342;2023-04-27T13:15:19;94598.66;;;22.44;48.38
8049;BME280;20935;42.660;23.342;2023-04-27T13:18:04;94599.41;;;22.44;48.66
8049;BME280;20935;42.660;23.342;2023-04-27T13:20:52;94591.69;;;22.43;48.41
8049;BME280;20935;42.660;23.342;2023-04-27T13:23:37;94598.66;;;22.44;48.48
8049;BME280;20935;42.660;23.342;2023-04-27T13:26:22;94588.22;;;22.42;48.32
8049;BME280;20935;42.660;23.342;2023-04-27T13:29:08;94585.22;;;22.40;48.77
8049;BME280;20935;42.660;23.342;2023-04-27T13:31:54;94591.13;;;22.39;48.80
8049;BME280;20935;42.660;23.342;2023-04-27T13:34:39;94600.53;;;22.38;48.57
8049;BME280;20935;42.660;23.342;2023-04-27T13:37:26;94593.59;;;22.37;48.62
8049;BME280;20935;42.660;23.342;2023-04-27T13:40:11;94589.81;;;22.34;48.95
8049;BME280;20935;42.660;23.342;2023-04-27T13:42:57;94588.81;;;22.32;48.93
8049;BME280;20935;42.660;23.342;2023-04-27T13:45:42;94588.50;;;22.30;48.77
8049;BME280;20935;42.660;23.342;2023-04-27T13:48:29;94592.00;;;22.30;48.89
8049;BME280;20935;42.660;23.342;2023-04-27T13:51:14;94591.25;;;22.30;48.83
8049;BME280;20935;42.660;23.342;2023-04-27T13:54:01;94600.94;;;22.31;48.96
8049;BME280;20935;42.660;23.342;2023-04-27T13:56:47;94594.72;;;22.30;49.14
8049;BME280;20935;42.660;23.342;2023-04-27T13:59:32;94602.91;;;22.30;49.10
8049;BME280;20935;42.660;23.342;2023-04-27T14:02:18;94608.66;;;22.32;49.03
8049;BME280;20935;42.660;23.342;2023-04-27T14:05:04;94602.44;;;22.32;48.78
8049;BME280;20935;42.660;23.342;2023-04-27T14:07:49;94606.97;;;22.35;48.78
8049;BME280;20935;42.660;23.342;2023-04-27T14:10:37;94611.66;;;22.34;49.09
8049;BME280;20935;42.660;23.342;2023-04-27T14:13:22;94609.41;;;22.33;49.06
8049;BME280;20935;42.660;23.342;2023-04-27T14:16:09;94608.47;;;22.36;48.82
8049;BME280;20935;42.660;23.342;2023-04-27T14:18:54;94612.97;;;22.39;49.08
8049;BME280;20935;42.660;23.342;2023-04-27T14:21:40;94619.94;;;22.40;49.07
8049;BME280;20935;42.660;23.342;2023-04-27T14:24:25;94612.50;;;22.40;48.82
8049;BME280;20935;42.660;23.342;2023-04-27T14:27:11;94624.66;;;22.39;48.87
8049;BME280;20935;42.660;23.342;2023-04-27T14:29:57;94622.94;;;22.42;49.16
8049;BME280;20935;42.660;23.342;2023-04-27T14:32:42;94625.97;;;22.44;48.93
8049;BME280;20935;42.660;23.342;2023-04-27T14:35:28;94631.69;;;22.46;48.92
8049;BME280;20935;42.660;23.342;2023-04-27T14:38:14;94631.97;;;22.48;48.83
8049;BME280;20935;42.660;23.342;2023-04-27T14:40:59;94632.25;;;22.50;48.87